Terminal Aerodrome Forecast
Issued by NWS

Home | Current Version | Previous Version | Text Only | Print | Product List | Glossary On
Versions: 1 2 3 4 5 6 7 8 9 10 11 12 13 14 15 16 17 18
000
FTAK31 PAFA 232340
TAFAQT
TAF
PAQT 232340Z 2400/2424 07017KT 3SM HZ OVC100
     FM240600 08025G35KT 1 1/2SM -SN BLSN BR SCT005 OVC015
     FM240900 08025G35KT 1 1/2SM -SN BLSN BR OVC005=

USA.gov is the U.S. government's official web portal to all federal, state and local government web resources and services.